Time;durP1;ratioP1;P1;durP2;ratioP2;P2;SDS_P1;SDS_P2;PMS_P1;PMS_P2;Temp;Humidity;BMP_temperature;BMP_pressure;BME280_temperature;BME280_humidity;BME280_pressure;Samples;Min_cycle;Max_cycle;Signal;HPM_P1;HPM_P2
2022/03/30 00:00:45;;;;;;;35.60;19.90;;;;;;;6.87;70.09;100693.56;5095557;28;20029;-58
2022/03/30 00:03:11;;;;;;;34.28;19.80;;;;;;;6.83;70.25;100687.81;5095797;28;20088;-55
2022/03/30 00:05:37;;;;;;;35.08;20.75;;;;;;;6.77;70.75;100690.88;5095721;28;20071;-55
2022/03/30 00:08:02;;;;;;;34.45;19.73;;;;;;;6.69;70.70;100689.53;5095277;28;20028;-53
2022/03/30 00:10:28;;;;;;;33.78;21.05;;;;;;;6.61;71.44;100698.38;5095479;28;20049;-54
2022/03/30 00:12:54;;;;;;;33.88;20.90;;;;;;;6.61;70.66;100696.47;5095116;28;20028;-50
2022/03/30 00:15:20;;;;;;;34.33;20.48;;;;;;;6.54;71.04;100698.66;5095765;28;20070;-54
2022/03/30 00:17:45;;;;;;;36.47;21.45;;;;;;;6.53;70.95;100700.63;5095156;28;20032;-55
2022/03/30 00:20:11;;;;;;;35.72;20.35;;;;;;;6.46;71.61;100694.59;5095367;28;20032;-54
2022/03/30 00:22:38;;;;;;;32.83;20.40;;;;;;;6.36;71.75;100697.41;5095582;28;20020;-53
2022/03/30 00:25:05;;;;;;;37.50;21.08;;;;;;;6.27;72.36;100697.16;5095523;28;20024;-53
2022/03/30 00:27:31;;;;;;;38.28;23.40;;;;;;;6.19;72.58;100689.50;5093788;28;20151;-53
2022/03/30 00:29:56;;;;;;;35.33;21.27;;;;;;;6.13;72.96;100682.38;5095519;28;20484;-53
2022/03/30 00:32:21;;;;;;;33.92;19.65;;;;;;;6.07;73.13;100689.81;5095165;28;20036;-54
2022/03/30 00:34:47;;;;;;;36.42;22.42;;;;;;;5.98;73.13;100683.22;5094339;28;20024;-55
2022/03/30 00:37:13;;;;;;;35.47;20.33;;;;;;;5.98;73.61;100696.94;5095245;28;20027;-55
2022/03/30 00:39:38;;;;;;;37.60;21.63;;;;;;;5.90;73.69;100682.66;5095437;28;20054;-53
2022/03/30 00:42:14;;;;;;;35.38;19.80;;;;;;;5.89;73.51;100678.31;5094886;28;20024;-54
2022/03/30 00:44:40;;;;;;;33.85;21.08;;;;;;;5.84;73.90;100681.03;5094275;28;20619;-53
2022/03/30 00:47:12;;;;;;;37.05;21.10;;;;;;;5.82;74.14;100682.44;5094877;28;20087;-53
2022/03/30 00:49:38;;;;;;;38.78;20.20;;;;;;;5.76;74.00;100678.88;5095072;28;20077;-55
2022/03/30 00:52:03;;;;;;;34.80;20.00;;;;;;;5.68;74.31;100682.19;5093855;28;20036;-54
2022/03/30 00:54:29;;;;;;;35.22;19.00;;;;;;;5.63;74.97;100672.84;5094236;28;20057;-52
2022/03/30 00:56:55;;;;;;;35.10;19.88;;;;;;;5.60;74.77;100675.31;5075965;28;20032;-53
2022/03/30 00:59:20;;;;;;;38.78;21.38;;;;;;;5.51;75.17;100677.00;5094218;28;20024;-55
2022/03/30 01:01:45;;;;;;;36.70;21.67;;;;;;;5.43;76.02;100672.91;5094691;28;20134;-53
2022/03/30 01:04:11;;;;;;;33.40;20.58;;;;;;;5.39;75.17;100672.59;5094354;28;20389;-52
2022/03/30 01:06:36;;;;;;;37.65;21.02;;;;;;;5.31;76.27;100673.16;5093881;28;20024;-55
2022/03/30 01:09:02;;;;;;;37.35;20.63;;;;;;;5.26;76.14;100675.91;5094716;28;20036;-53
2022/03/30 01:11:28;;;;;;;32.33;19.80;;;;;;;5.21;76.47;100673.16;5093919;28;20434;-53
2022/03/30 01:13:54;;;;;;;33.97;20.52;;;;;;;5.18;76.07;100674.53;5093986;28;20500;-54
2022/03/30 01:16:20;;;;;;;37.65;21.55;;;;;;;5.12;76.39;100665.47;5093962;28;20113;-55
2022/03/30 01:18:46;;;;;;;36.08;21.45;;;;;;;5.06;77.03;100666.59;5094714;28;20085;-55
2022/03/30 01:21:11;;;;;;;38.53;21.20;;;;;;;4.98;77.67;100665.19;5094454;28;20468;-55
2022/03/30 01:23:37;;;;;;;38.33;20.90;;;;;;;4.95;77.57;100660.28;5094059;28;20020;-55
2022/03/30 01:26:05;;;;;;;35.47;21.45;;;;;;;4.87;77.75;100655.31;5094085;28;20039;-55
2022/03/30 01:28:34;;;;;;;37.65;20.83;;;;;;;4.85;77.82;100657.53;5093834;28;20020;-54
2022/03/30 01:33:48;;;;;;;;;;;;;;;4.83;76.43;100652.31;5094802;28;20043;-54
2022/03/30 01:36:17;;;;;;;35.67;21.10;;;;;;;4.77;77.34;100656.13;5093834;28;19919;-54
2022/03/30 01:38:43;;;;;;;37.83;21.70;;;;;;;4.77;77.76;100658.06;5093398;28;20102;-53
2022/03/30 01:41:08;;;;;;;39.58;21.80;;;;;;;4.66;78.73;100657.22;5093726;28;20024;-54
2022/03/30 01:43:34;;;;;;;38.58;22.33;;;;;;;4.59;78.45;100659.41;5093753;28;20020;-55
2022/03/30 01:45:59;;;;;;;36.85;20.70;;;;;;;4.55;79.25;100659.13;5093344;28;20031;-54
2022/03/30 01:48:24;;;;;;;41.17;21.92;;;;;;;4.50;79.07;100651.72;5093296;28;20050;-55
2022/03/30 01:50:50;;;;;;;38.80;21.33;;;;;;;4.48;79.04;100655.81;5093106;28;20020;-55
2022/03/30 01:53:15;;;;;;;36.17;22.27;;;;;;;4.36;79.76;100645.91;5092659;28;20032;-51
2022/03/30 01:55:41;;;;;;;38.67;23.50;;;;;;;4.31;79.86;100645.88;5093108;28;20400;-53
2022/03/30 01:58:06;;;;;;;39.20;22.13;;;;;;;4.31;79.55;100645.88;5093171;28;20050;-53
2022/03/30 02:00:32;;;;;;;35.33;20.50;;;;;;;4.29;80.09;100645.34;5093452;28;20103;-54
2022/03/30 02:02:58;;;;;;;34.92;21.50;;;;;;;4.30;79.84;100627.81;5093073;28;20024;-54
2022/03/30 02:05:24;;;;;;;37.97;21.10;;;;;;;4.27;80.59;100627.53;5092777;28;20052;-53
2022/03/30 02:07:49;;;;;;;36.60;21.63;;;;;;;4.28;80.13;100635.50;5093044;28;20027;-54
2022/03/30 02:10:15;;;;;;;38.13;22.00;;;;;;;4.28;79.63;100634.66;5093375;28;20537;-54
2022/03/30 02:12:40;;;;;;;37.85;20.80;;;;;;;4.29;79.95;100630.81;5092880;28;20028;-52
2022/03/30 02:15:07;;;;;;;39.72;21.63;;;;;;;4.22;79.58;100623.69;5093711;28;20028;-55
2022/03/30 02:17:33;;;;;;;34.75;18.95;;;;;;;4.25;79.93;100624.25;5093024;28;20472;-52
2022/03/30 02:19:58;;;;;;;37.50;21.40;;;;;;;4.19;80.14;100621.47;5093520;28;20095;-53
2022/03/30 02:22:24;;;;;;;34.70;20.23;;;;;;;4.19;80.22;100612.47;5093121;28;20083;-55
2022/03/30 02:24:51;;;;;;;37.67;20.42;;;;;;;4.12;80.51;100609.13;5093128;28;20391;-53
2022/03/30 02:27:19;;;;;;;38.47;21.90;;;;;;;4.06;81.06;100605.56;5091328;28;20020;-53
2022/03/30 02:29:46;;;;;;;36.75;21.02;;;;;;;4.06;80.69;100597.38;5081880;28;20126;-53
2022/03/30 02:32:11;;;;;;;39.03;21.80;;;;;;;4.08;80.55;100597.88;5073372;28;20035;-54
2022/03/30 02:34:37;;;;;;;35.97;21.40;;;;;;;4.10;80.37;100594.91;5073326;28;20017;-52
2022/03/30 02:37:02;;;;;;;36.72;21.65;;;;;;;4.07;80.92;100588.03;5073568;28;20394;-54
2022/03/30 02:39:27;;;;;;;38.60;22.92;;;;;;;4.05;80.79;100588.31;5073337;28;20032;-55
2022/03/30 02:41:55;;;;;;;38.92;21.58;;;;;;;4.06;80.54;100583.69;5073544;28;20032;-55
2022/03/30 02:44:20;;;;;;;38.78;22.25;;;;;;;4.05;80.57;100582.84;5073553;28;20032;-54
2022/03/30 02:46:46;;;;;;;36.00;20.73;;;;;;;4.08;81.04;100586.13;5073043;28;20028;-54
2022/03/30 02:49:11;;;;;;;35.85;20.48;;;;;;;4.08;80.26;100586.13;5072986;28;20036;-56
2022/03/30 02:51:38;;;;;;;39.47;21.70;;;;;;;4.09;80.25;100577.63;5073324;28;20111;-54
2022/03/30 02:54:04;;;;;;;40.10;22.33;;;;;;;4.09;80.33;100585.84;5072676;28;20392;-53
2022/03/30 02:56:29;;;;;;;38.17;20.92;;;;;;;4.08;80.92;100576.00;5073243;28;20024;-55
2022/03/30 02:58:54;;;;;;;37.88;21.50;;;;;;;4.09;80.16;100579.56;5072865;28;20551;-55
2022/03/30 03:01:20;;;;;;;38.13;21.70;;;;;;;4.05;80.47;100579.28;5073017;28;20030;-54
2022/03/30 03:03:45;;;;;;;36.67;21.02;;;;;;;4.02;80.84;100575.16;5072830;28;20053;-54
2022/03/30 03:06:10;;;;;;;36.28;20.25;;;;;;;3.99;80.94;100572.97;5073176;28;20504;-55
2022/03/30 03:08:35;;;;;;;36.75;22.33;;;;;;;3.96;81.08;100570.75;5072881;28;20099;-55
2022/03/30 03:11:01;;;;;;;36.30;21.02;;;;;;;3.98;81.02;100570.47;5072482;28;20476;-52
2022/03/30 03:13:26;;;;;;;38.67;21.17;;;;;;;3.99;80.24;100574.88;5072319;28;20079;-55
2022/03/30 03:15:51;;;;;;;39.80;21.45;;;;;;;3.98;80.56;100575.94;5072307;28;20031;-53
2022/03/30 03:18:18;;;;;;;35.53;20.60;;;;;;;3.89;81.72;100573.75;5072150;28;20031;-54
2022/03/30 03:20:45;;;;;;;37.92;22.55;;;;;;;3.83;82.14;100568.50;5072551;28;20087;-52
2022/03/30 03:23:12;;;;;;;36.60;21.10;;;;;;;3.76;82.02;100560.56;5072149;28;20029;-55
2022/03/30 03:25:39;;;;;;;38.40;21.38;;;;;;;3.72;82.12;100565.75;5055097;28;20077;-55
2022/03/30 03:28:05;;;;;;;38.50;21.05;;;;;;;3.70;82.69;100556.16;5072597;28;20020;-54
2022/03/30 03:30:31;;;;;;;36.00;21.08;;;;;;;3.68;82.65;100559.16;5072567;28;20499;-54
2022/03/30 03:32:56;;;;;;;35.88;20.17;;;;;;;3.69;82.66;100559.97;5072670;28;20031;-53
2022/03/30 03:35:22;;;;;;;37.67;20.98;;;;;;;3.64;82.34;100558.03;5072344;28;20032;-53
2022/03/30 03:37:47;;;;;;;36.67;21.38;;;;;;;3.64;82.33;100551.75;5072376;28;20027;-54
2022/03/30 03:40:13;;;;;;;37.33;20.92;;;;;;;3.61;83.05;100555.00;5072993;28;20036;-52
2022/03/30 03:42:39;;;;;;;41.20;22.40;;;;;;;3.58;82.70;100556.38;5072424;28;20028;-50
2022/03/30 03:45:06;;;;;;;37.88;20.73;;;;;;;3.60;82.50;100543.25;5072614;28;20056;-51
2022/03/30 03:47:32;;;;;;;39.15;21.20;;;;;;;3.57;82.84;100557.47;5072542;28;20491;-53
2022/03/30 03:49:57;;;;;;;37.30;20.75;;;;;;;3.57;82.77;100541.88;5072324;28;20468;-53
2022/03/30 03:52:22;;;;;;;39.05;20.80;;;;;;;3.57;82.63;100533.69;5072216;28;20033;-55
2022/03/30 03:54:48;;;;;;;38.60;20.02;;;;;;;3.53;83.32;100543.50;5072168;28;20029;-52
2022/03/30 03:57:13;;;;;;;39.75;21.90;;;;;;;3.51;83.42;100551.13;5071998;28;20373;-54
2022/03/30 03:59:38;;;;;;;38.42;21.38;;;;;;;3.51;82.45;100540.19;5071965;28;20060;-55
2022/03/30 04:02:07;;;;;;;38.83;20.33;;;;;;;3.49;83.06;100552.50;5073926;28;20032;-52
2022/03/30 04:04:32;;;;;;;40.13;20.52;;;;;;;3.42;83.45;100531.69;5075391;28;20044;-53
2022/03/30 04:06:58;;;;;;;36.42;20.33;;;;;;;3.39;83.59;100534.94;5075933;28;20031;-52
2022/03/30 04:09:23;;;;;;;34.25;20.40;;;;;;;3.36;83.02;100537.41;5075941;28;20481;-51
2022/03/30 04:11:48;;;;;;;40.50;21.77;;;;;;;3.31;84.61;100534.66;5075783;28;20115;-53
2022/03/30 04:14:17;;;;;;;36.72;20.33;;;;;;;3.25;83.72;100531.88;5075549;28;20032;-53
2022/03/30 04:16:43;;;;;;;35.08;20.48;;;;;;;3.20;83.88;100529.13;5075791;28;20369;-54
2022/03/30 04:19:08;;;;;;;35.25;21.00;;;;;;;3.17;84.65;100531.53;5075557;28;20598;-54
2022/03/30 04:21:33;;;;;;;40.60;21.30;;;;;;;3.13;83.75;100531.25;5075546;28;20070;-53
2022/03/30 04:23:58;;;;;;;37.75;21.65;;;;;;;3.13;83.78;100525.78;5075465;28;20107;-54
2022/03/30 04:26:24;;;;;;;41.17;23.25;;;;;;;3.05;84.95;100542.66;5075715;28;20043;-53
2022/03/30 04:28:49;;;;;;;39.63;22.10;;;;;;;2.99;84.89;100538.25;5075578;28;20099;-54
2022/03/30 04:31:14;;;;;;;37.45;21.83;;;;;;;2.96;85.09;100534.97;5075425;28;20036;-55
2022/03/30 04:33:39;;;;;;;42.47;25.45;;;;;;;2.91;85.45;100534.94;5075791;28;20036;-53
2022/03/30 04:36:06;;;;;;;58.88;43.25;;;;;;;2.88;85.02;100538.19;5075171;28;20031;-52
2022/03/30 04:38:32;;;;;;;59.72;41.08;;;;;;;2.82;85.49;100528.31;5075198;28;20471;-53
2022/03/30 04:40:58;;;;;;;50.55;33.50;;;;;;;2.78;85.91;100533.50;5075434;28;20035;-55
2022/03/30 04:43:23;;;;;;;42.17;26.10;;;;;;;2.71;86.55;100526.59;5074931;28;20024;-55
2022/03/30 04:45:49;;;;;;;43.92;24.00;;;;;;;2.71;85.93;100527.41;5075067;28;20457;-54
2022/03/30 04:48:14;;;;;;;40.88;22.67;;;;;;;2.67;86.37;100530.91;5075278;28;20024;-55
2022/03/30 04:50:39;;;;;;;35.63;22.05;;;;;;;2.69;86.54;100539.69;5075216;28;20029;-51
2022/03/30 04:53:05;;;;;;;40.47;23.10;;;;;;;2.61;86.92;100530.88;5056662;28;20040;-51
2022/03/30 04:55:31;;;;;;;39.97;22.20;;;;;;;2.56;86.81;100538.22;5075464;28;20338;-52
2022/03/30 04:57:56;;;;;;;39.85;22.05;;;;;;;2.54;87.01;100541.22;5074910;28;20089;-54
2022/03/30 05:00:21;;;;;;;37.17;22.15;;;;;;;2.50;86.71;100535.41;5075117;28;20134;-54
2022/03/30 05:02:47;;;;;;;39.47;23.33;;;;;;;2.49;86.74;100539.25;5074625;28;20358;-54
2022/03/30 05:05:12;;;;;;;40.72;23.38;;;;;;;2.43;87.67;100542.19;5074160;28;20058;-53
2022/03/30 05:07:38;;;;;;;41.53;22.48;;;;;;;2.39;87.55;100549.25;5074745;28;20020;-53
2022/03/30 05:10:06;;;;;;;42.65;25.35;;;;;;;2.39;87.41;100539.16;5074546;28;20048;-55
2022/03/30 05:12:32;;;;;;;40.95;24.73;;;;;;;2.43;87.10;100534.00;5074487;28;20029;-53
2022/03/30 05:14:57;;;;;;;36.63;22.40;;;;;;;2.39;86.82;100530.13;5074069;28;20404;-53
2022/03/30 05:17:22;;;;;;;38.50;22.23;;;;;;;2.40;87.01;100531.78;5073960;28;20111;-56
2022/03/30 05:19:48;;;;;;;39.03;21.60;;;;;;;2.38;87.19;100529.31;5074256;28;20036;-54
2022/03/30 05:22:14;;;;;;;39.50;22.77;;;;;;;2.31;88.02;100526.81;5073783;28;20368;-53
2022/03/30 05:24:39;;;;;;;39.00;22.77;;;;;;;2.31;87.35;100532.25;5074626;28;20028;-53
2022/03/30 05:27:05;;;;;;;37.38;22.75;;;;;;;2.25;88.45;100527.84;5074079;28;20021;-55
2022/03/30 05:29:30;;;;;;;39.80;22.05;;;;;;;2.21;88.85;100526.69;5074354;28;20029;-53
2022/03/30 05:31:56;;;;;;;40.50;22.08;;;;;;;2.17;88.99;100529.13;5074148;28;20476;-55
2022/03/30 05:34:22;;;;;;;40.60;21.83;;;;;;;2.16;88.56;100529.38;5074010;28;20111;-53
2022/03/30 05:36:48;;;;;;;38.63;21.88;;;;;;;2.16;88.07;100515.75;5074046;28;20032;-53
2022/03/30 05:39:13;;;;;;;40.90;22.20;;;;;;;2.14;88.52;100510.53;5074106;28;20035;-53
2022/03/30 05:41:38;;;;;;;41.38;22.15;;;;;;;2.13;88.71;100519.78;5073847;28;20150;-53
2022/03/30 05:44:04;;;;;;;42.10;22.38;;;;;;;2.13;89.58;100519.78;5073706;28;20460;-54
2022/03/30 05:46:29;;;;;;;39.38;21.38;;;;;;;2.10;89.59;100517.59;5072798;28;20036;-54
2022/03/30 05:48:55;;;;;;;40.78;21.63;;;;;;;2.11;89.89;100515.69;5073182;28;20031;-52
2022/03/30 05:51:20;;;;;;;43.03;23.48;;;;;;;2.13;89.98;100519.78;5073543;28;20107;-53
2022/03/30 05:53:46;;;;;;;41.40;21.77;;;;;;;2.17;89.74;100510.03;5073464;28;20074;-52
2022/03/30 05:56:12;;;;;;;38.00;21.10;;;;;;;2.20;90.04;100522.31;5074096;28;20109;-55
2022/03/30 05:58:37;;;;;;;40.40;21.58;;;;;;;2.26;89.41;100520.47;5073463;28;20112;-53
2022/03/30 06:01:03;;;;;;;39.75;21.98;;;;;;;2.32;89.28;100517.53;5073541;28;20033;-54
2022/03/30 06:03:28;;;;;;;39.17;21.65;;;;;;;2.43;88.94;100515.72;5073928;28;20057;-54
2022/03/30 06:05:54;;;;;;;38.38;21.85;;;;;;;2.45;89.02;100518.19;5073910;28;20082;-54
2022/03/30 06:08:19;;;;;;;36.58;20.75;;;;;;;2.49;88.09;100514.69;5073746;28;20456;-54
2022/03/30 06:10:45;;;;;;;41.63;23.88;;;;;;;2.53;88.21;100519.59;5073368;28;20040;-53
2022/03/30 06:13:10;;;;;;;40.72;22.38;;;;;;;2.56;88.43;100530.03;5073584;28;20051;-55
2022/03/30 06:15:38;;;;;;;41.20;21.35;;;;;;;2.57;88.46;100520.75;5073316;28;20155;-54
2022/03/30 06:18:10;;;;;;;39.78;21.55;;;;;;;2.61;87.63;100528.16;5073433;28;20025;-54
2022/03/30 06:20:35;;;;;;;41.17;21.83;;;;;;;2.65;87.30;100526.53;5073390;28;20039;-55
2022/03/30 06:23:01;;;;;;;40.35;20.92;;;;;;;2.70;87.38;100517.56;5073662;28;20024;-55
2022/03/30 06:25:26;;;;;;;38.33;20.05;;;;;;;2.76;87.38;100521.16;5072408;28;20089;-54
2022/03/30 06:27:52;;;;;;;39.78;21.70;;;;;;;2.81;87.43;100522.00;5072119;28;20543;-55
2022/03/30 06:30:17;;;;;;;36.90;21.15;;;;;;;2.88;86.72;100531.91;5072374;28;20036;-55
2022/03/30 06:32:43;;;;;;;44.08;21.40;;;;;;;2.97;86.55;100525.69;5071392;28;20039;-55
2022/03/30 06:35:09;;;;;;;40.63;21.25;;;;;;;3.08;87.02;100523.84;5072302;28;20029;-54
2022/03/30 06:37:34;;;;;;;40.63;20.27;;;;;;;3.20;85.71;100515.44;5072593;28;20392;-55
2022/03/30 06:39:59;;;;;;;39.85;20.92;;;;;;;3.31;85.46;100523.72;5072976;28;20016;-54
2022/03/30 06:42:25;;;;;;;43.65;21.42;;;;;;;3.40;85.37;100525.66;5072566;28;20025;-55
2022/03/30 06:44:50;;;;;;;43.97;21.52;;;;;;;3.52;85.26;100521.88;5072568;28;20060;-56
2022/03/30 06:47:16;;;;;;;39.50;21.45;;;;;;;3.61;84.74;100525.75;5072638;28;20039;-56
2022/03/30 06:49:41;;;;;;;37.33;20.15;;;;;;;3.65;84.12;100534.25;5072624;28;20067;-56
2022/03/30 06:52:08;;;;;;;37.47;20.05;;;;;;;3.73;84.08;100541.94;5072779;28;20027;-56
2022/03/30 06:54:37;;;;;;;37.55;20.02;;;;;;;3.70;83.05;100534.25;5072690;28;20476;-55
2022/03/30 06:57:03;;;;;;;40.08;20.65;;;;;;;3.76;83.86;100546.88;5072654;28;20477;-55
2022/03/30 06:59:29;;;;;;;38.58;19.85;;;;;;;3.80;83.24;100531.56;5072683;28;20033;-55
2022/03/30 07:01:58;;;;;;;37.70;20.85;;;;;;;3.90;83.06;100530.78;5073111;28;20086;-52
2022/03/30 07:04:24;;;;;;;36.63;18.85;;;;;;;3.97;83.77;100527.81;5072287;28;20485;-54
2022/03/30 07:12:16;;;;;;;35.25;19.70;;;;;;;4.25;82.66;100528.41;5072452;28;20210;-54
2022/03/30 07:14:42;;;;;;;42.25;23.67;;;;;;;4.27;81.01;100526.19;5072818;28;20112;-54
2022/03/30 07:17:07;;;;;;;37.40;21.45;;;;;;;4.25;81.18;100523.75;5072469;28;20518;-54
2022/03/30 07:19:32;;;;;;;41.67;21.20;;;;;;;4.23;81.32;100520.44;5072477;28;20043;-55
2022/03/30 07:21:58;;;;;;;38.42;21.52;;;;;;;4.28;81.63;100530.59;5072617;28;20021;-55
2022/03/30 07:24:23;;;;;;;39.03;21.40;;;;;;;4.40;81.57;100522.09;5072253;28;20100;-55
2022/03/30 07:26:48;;;;;;;38.30;20.40;;;;;;;4.50;80.54;100522.94;5072378;28;20040;-54
2022/03/30 07:29:14;;;;;;;39.58;20.65;;;;;;;4.57;80.59;100522.69;5072229;28;20047;-54
2022/03/30 07:31:39;;;;;;;40.60;22.27;;;;;;;4.65;80.70;100516.66;5073158;28;20062;-54
2022/03/30 07:34:04;;;;;;;37.08;21.10;;;;;;;4.72;79.51;100519.13;5071647;28;20025;-51
2022/03/30 07:36:30;;;;;;;33.38;19.80;;;;;;;4.80;79.36;100513.09;5072446;28;20028;-51
2022/03/30 07:38:55;;;;;;;38.78;20.27;;;;;;;4.92;79.17;100515.53;5074006;28;20567;-54
2022/03/30 07:41:21;;;;;;;35.40;20.67;;;;;;;5.07;79.14;100514.69;5074032;28;20042;-55
2022/03/30 07:43:46;;;;;;;36.47;21.25;;;;;;;5.11;77.55;100514.94;5086019;28;20024;-54
2022/03/30 07:46:13;;;;;;;37.08;21.25;;;;;;;5.14;77.59;100517.97;5093659;28;20032;-55
2022/03/30 07:48:38;;;;;;;37.38;20.90;;;;;;;5.22;77.69;100510.25;5094074;28;20101;-54
2022/03/30 07:51:04;;;;;;;37.28;19.55;;;;;;;5.36;77.92;100516.81;5092421;28;20491;-52
2022/03/30 07:53:29;;;;;;;36.50;19.98;;;;;;;5.44;76.51;100510.75;5094577;28;20123;-50
2022/03/30 07:55:55;;;;;;;34.35;19.48;;;;;;;5.52;76.46;100511.25;5093975;28;20020;-53
2022/03/30 07:58:21;;;;;;;34.13;18.35;;;;;;;5.58;76.39;100515.63;5094070;28;20035;-54
2022/03/30 08:00:47;;;;;;;34.92;18.73;;;;;;;5.70;75.49;100521.59;5094024;28;20028;-53
2022/03/30 08:03:12;;;;;;;33.25;18.23;;;;;;;5.79;74.74;100508.13;5093739;28;20574;-54
2022/03/30 08:05:38;;;;;;;34.95;17.90;;;;;;;5.84;74.63;100513.59;5094100;28;20368;-55
2022/03/30 08:08:06;;;;;;;34.35;18.48;;;;;;;5.86;73.70;100514.13;5092549;28;20404;-55
2022/03/30 08:10:33;;;;;;;30.58;17.90;;;;;;;5.95;73.89;100519.84;5095878;28;20056;-50
2022/03/30 08:12:58;;;;;;;35.08;19.63;;;;;;;5.98;73.54;100516.53;5095805;28;20081;-54
2022/03/30 08:15:24;;;;;;;35.05;18.85;;;;;;;6.06;73.91;100512.41;5095760;28;20024;-55
2022/03/30 08:17:51;;;;;;;34.53;17.88;;;;;;;6.26;73.60;100510.63;5095845;28;20028;-55
2022/03/30 08:23:00;;;;;;;31.08;17.60;;;;;;;6.58;71.78;100521.09;5095823;28;20123;-56
2022/03/30 08:25:25;;;;;;;33.88;18.80;;;;;;;6.58;71.19;100517.53;5095580;28;20111;-53
2022/03/30 08:27:51;;;;;;;30.13;16.88;;;;;;;6.67;71.98;100530.38;5095829;28;20032;-55
2022/03/30 08:30:17;;;;;;;30.63;18.25;;;;;;;6.63;71.45;100525.75;5095726;28;20111;-53
2022/03/30 08:32:42;;;;;;;32.15;18.63;;;;;;;6.69;71.66;100517.19;5095714;28;20042;-54
2022/03/30 08:35:10;;;;;;;32.33;18.00;;;;;;;6.77;71.70;100518.47;5095599;28;20103;-53
2022/03/30 08:37:36;;;;;;;31.40;17.90;;;;;;;6.87;71.51;100520.31;5095533;28;20107;-55
2022/03/30 08:40:01;;;;;;;31.35;19.67;;;;;;;6.95;70.54;100518.84;5095415;28;20111;-54
2022/03/30 08:42:27;;;;;;;30.92;18.27;;;;;;;7.01;70.68;100515.75;5095523;28;20425;-53
2022/03/30 08:44:53;;;;;;;32.38;17.83;;;;;;;7.09;70.71;100507.97;5095130;28;20439;-54
2022/03/30 08:47:19;;;;;;;37.92;19.15;;;;;;;7.13;70.47;100512.59;5094792;28;20016;-51
2022/03/30 08:49:47;;;;;;;34.80;18.27;;;;;;;7.16;70.69;100513.97;5095321;28;20071;-52
2022/03/30 08:52:13;;;;;;;32.05;19.23;;;;;;;7.12;69.89;100513.75;5095200;28;20035;-54
2022/03/30 08:54:43;;;;;;;33.30;18.17;;;;;;;7.20;70.09;100503.22;5095053;28;20020;-54
2022/03/30 08:57:09;;;;;;;32.70;19.67;;;;;;;7.26;69.24;100515.78;5095260;28;20051;-55
2022/03/30 08:59:35;;;;;;;32.13;19.33;;;;;;;7.28;69.43;100508.06;5093311;28;20421;-56
2022/03/30 09:02:01;;;;;;;33.63;18.75;;;;;;;7.39;69.53;100495.84;5084891;28;20031;-55
2022/03/30 09:04:26;;;;;;;32.38;18.88;;;;;;;7.54;69.44;100500.34;5074890;28;20548;-53
2022/03/30 09:06:57;;;;;;;37.13;18.35;;;;;;;7.63;68.39;100497.75;5078360;28;20424;-54
2022/03/30 09:09:30;;;;;;;33.55;19.10;;;;;;;7.74;68.46;100496.50;5093473;28;20024;-55
2022/03/30 09:11:56;;;;;;;;;;;;;;;7.89;67.37;100500.16;5085289;28;20031;-55
2022/03/30 09:14:31;;;;;;;32.35;18.08;;;;;;;7.96;66.55;100490.41;5085708;28;19916;-54
2022/03/30 09:17:01;;;;;;;31.70;17.67;;;;;;;7.99;66.52;100490.94;5074692;28;20028;-54
2022/03/30 09:19:27;;;;;;;32.15;18.48;;;;;;;8.02;66.24;100493.91;5087718;28;20017;-55
2022/03/30 09:21:58;;;;;;;31.63;17.77;;;;;;;8.10;66.17;100498.75;5076502;28;20025;-54
2022/03/30 09:24:35;;;;;;;29.13;16.58;;;;;;;8.28;66.17;100485.25;5087512;28;20031;-55
2022/03/30 09:27:02;;;;;;;28.55;16.83;;;;;;;8.44;65.48;100491.34;5094636;28;20016;-55
2022/03/30 09:29:32;;;;;;;29.70;17.38;;;;;;;8.47;65.08;100488.03;5087578;28;20022;-54
2022/03/30 09:32:08;;;;;;;29.00;17.70;;;;;;;8.49;64.07;100480.28;5074082;28;20025;-52
2022/03/30 09:34:36;;;;;;;31.38;17.80;;;;;;;8.43;63.57;100478.69;5088685;28;20061;-52
2022/03/30 09:37:02;;;;;;;31.45;17.63;;;;;;;8.47;64.55;100474.25;5072058;28;20055;-53
2022/03/30 09:39:33;;;;;;;32.97;18.02;;;;;;;8.58;64.44;100467.44;5086779;28;20024;-54
2022/03/30 09:42:00;;;;;;;30.77;17.38;;;;;;;8.68;63.44;100460.13;5089438;28;20024;-55
2022/03/30 09:44:28;;;;;;;28.95;16.90;;;;;;;8.63;64.21;100463.78;5088972;28;20031;-53
2022/03/30 09:46:57;;;;;;;32.20;17.75;;;;;;;8.74;63.29;100462.47;5089105;28;20059;-53
2022/03/30 09:49:42;;;;;;;29.65;17.60;;;;;;;8.80;63.16;100463.19;5080050;28;20047;-54
2022/03/30 09:52:21;;;;;;;29.77;16.85;;;;;;;8.93;63.50;100456.06;5088288;28;20039;-55
2022/03/30 09:54:54;;;;;;;27.85;16.88;;;;;;;9.01;62.74;100455.38;5083537;28;20047;-53
2022/03/30 09:57:37;;;;;;;31.60;17.60;;;;;;;9.08;62.15;100452.19;5073975;28;20016;-55
2022/03/30 10:00:15;;;;;;;28.17;16.65;;;;;;;9.21;61.72;100447.78;5078013;28;20028;-50
2022/03/30 10:02:51;;;;;;;31.52;16.95;;;;;;;9.30;61.72;100440.47;5074821;28;20021;-55
2022/03/30 10:05:19;;;;;;;28.55;17.23;;;;;;;9.20;61.14;100443.44;5078850;28;20528;-51
2022/03/30 10:07:47;;;;;;;30.27;16.90;;;;;;;9.27;61.25;100445.75;5083849;28;20043;-52
2022/03/30 10:10:19;;;;;;;31.67;19.00;;;;;;;9.27;60.02;100445.75;5077586;28;20024;-55
2022/03/30 10:12:45;;;;;;;28.95;16.58;;;;;;;9.30;60.17;100436.88;5085518;28;20025;-52
2022/03/30 10:15:12;;;;;;;29.50;16.33;;;;;;;9.44;60.31;100443.22;5069824;28;20073;-52
2022/03/30 10:17:38;;;;;;;30.80;16.60;;;;;;;9.61;59.60;100441.75;5087068;28;20034;-54
2022/03/30 10:20:05;;;;;;;30.55;16.30;;;;;;;9.74;59.03;100429.03;5088791;28;20434;-51
2022/03/30 10:23:18;;;;;;;29.05;17.13;;;;;;;9.93;59.10;100440.75;5083937;28;20033;-55
2022/03/30 10:25:58;;;;;;;29.33;17.15;;;;;;;10.03;58.83;100436.13;5078972;28;20217;-54
2022/03/30 10:28:25;;;;;;;31.27;16.83;;;;;;;10.07;57.40;100428.81;5079968;28;20555;-53
2022/03/30 10:30:56;;;;;;;30.42;17.88;;;;;;;10.10;57.26;100434.56;5084921;28;20035;-53
2022/03/30 10:33:32;;;;;;;29.40;17.13;;;;;;;10.12;57.52;100429.50;5078420;28;20120;-54
2022/03/30 10:36:18;;;;;;;27.67;17.20;;;;;;;10.07;57.52;100426.06;5081865;28;20032;-51
2022/03/30 10:39:08;;;;;;;27.95;16.40;;;;;;;10.36;57.76;100433.09;5077566;28;20044;-54
2022/03/30 10:41:55;;;;;;;28.90;16.48;;;;;;;10.45;57.50;100409.09;5070947;28;20028;-50
2022/03/30 10:44:38;;;;;;;28.27;16.88;;;;;;;10.47;57.06;100414.34;5072156;28;20552;-53
2022/03/30 10:47:08;;;;;;;28.98;16.98;;;;;;;10.29;56.16;100409.47;5081339;28;20447;-52
2022/03/30 10:49:54;;;;;;;28.55;17.08;;;;;;;10.40;57.98;100412.81;5090191;28;20016;-54
2022/03/30 10:52:25;;;;;;;27.90;16.85;;;;;;;10.36;57.03;100414.56;5078790;28;20048;-54
2022/03/30 10:55:11;;;;;;;29.50;16.88;;;;;;;10.50;56.96;100406.22;5076919;28;20099;-55
2022/03/30 10:57:46;;;;;;;29.08;17.05;;;;;;;10.56;56.28;100404.94;5073514;28;20042;-54
2022/03/30 11:00:29;;;;;;;29.08;16.65;;;;;;;10.50;56.39;100399.88;5074459;28;20083;-53
2022/03/30 11:03:21;;;;;;;28.85;17.25;;;;;;;10.57;57.00;100389.19;5078223;28;20127;-54
2022/03/30 11:05:59;;;;;;;29.63;16.67;;;;;;;10.66;56.27;100378.97;5088257;28;20047;-51
2022/03/30 11:08:33;;;;;;;28.70;16.15;;;;;;;10.73;54.83;100387.63;5077141;28;20054;-54
2022/03/30 11:11:20;;;;;;;27.17;16.88;;;;;;;10.59;55.33;100378.59;5081663;28;20027;-53
2022/03/30 11:13:45;;;;;;;27.98;16.67;;;;;;;10.47;54.17;100381.97;5086400;28;20040;-53
2022/03/30 11:16:11;;;;;;;26.80;16.15;;;;;;;10.40;54.55;100374.09;5088357;28;20020;-55
2022/03/30 11:18:54;;;;;;;31.48;17.00;;;;;;;10.48;55.92;100357.91;5083885;28;20035;-53
2022/03/30 11:21:19;;;;;;;27.27;15.40;;;;;;;10.73;56.54;100362.72;5083449;28;20036;-54
2022/03/30 11:24:04;;;;;;;27.88;16.13;;;;;;;10.79;55.40;100365.34;5086204;28;20047;-55
2022/03/30 11:26:47;;;;;;;27.63;15.68;;;;;;;10.66;56.13;100356.03;5086023;28;20483;-55
2022/03/30 11:29:45;;;;;;;27.40;15.98;;;;;;;10.71;55.64;100359.47;5076252;28;20074;-55